Latest Weather Observations for Lajamanu

IDD60801

Issued at 7:35 am CST Monday 22 September 2014 (issued every 30 minutes, with the page automatically refreshed every 10 minutes)

About weather observations | Map of weather stations | Latest weather observations for NT | Other Formats
Station Details ID: 014829 Name: LAJAMANU AIRPORT Lat: -18.33 Lon: 130.64 Height: 315.6 m
Data from the previous 72 hours. | See also: Recent months at Lajamanu
Date/Time
CST
Temp
°C
App
Temp
°C
Dew
Point
Rel
Hum
%
Delta-T
°C
Wind Press
QNH
hPa
Press
MSL
hPa
Rain
since 9 am
mm
Dir
 
Spd
km/h
Gust
km/h
Spd
kts
Gust
kts
22/07:30am 16.2 11.7 -3.3 26 7.9 E 11 15 6 8 1018.7 1017.0 0.0
22/07:00am 13.9 9.4 -3.4 30 6.8 E 11 13 6 7 1018.5 1016.8 0.0
22/06:30am 14.1 9.5 -4.1 28 7.1 E 11 15 6 8 1018.0 1016.3 0.0
22/06:00am 14.7 9.8 -3.6 28 7.2 ESE 13 15 7 8 1017.6 1015.9 0.0
22/05:30am 15.0 10.2 -2.9 29 7.2 ESE 13 15 7 8 1017.3 1015.5 0.0
22/05:00am 15.4 10.5 -3.0 28 7.4 ESE 13 15 7 8 1017.0 1015.2 0.0
22/04:30am 15.4 11.0 -2.5 29 7.3 ESE 11 13 6 7 1016.8 1015.0 0.0
22/04:00am 16.1 11.8 -1.9 29 7.5 ESE 11 13 6 7 1016.8 1015.0 0.0
22/03:30am 16.0 12.1 -1.5 30 7.3 ESE 9 11 5 6 1016.9 1015.1 0.0
22/03:00am 17.2 12.9 -1.4 28 7.9 ESE 11 13 6 7 1016.9 1015.1 0.0
22/02:30am 18.1 13.9 -1.2 27 8.3 ESE 11 13 6 7 1017.0 1015.2 0.0
22/02:00am 19.2 14.6 -0.7 26 8.8 ESE 13 17 7 9 1017.1 1015.3 0.0
22/01:30am 19.9 15.5 0.4 27 8.8 ESE 13 17 7 9 1017.0 1015.2 0.0
22/01:00am 19.9 15.7 1.4 29 8.5 SE 13 15 7 8 1017.2 1015.4 0.0
22/12:30am 20.9 17.1 1.7 28 9.0 SE 11 15 6 8 1017.3 1015.5 0.0
22/12:00am 21.5 17.7 1.7 27 9.3 SE 11 15 6 8 1017.3 1015.5 0.0
 
Date/Time
CST
Temp
°C
App
Temp
°C
Dew
Point
Rel
Hum
%
Delta-T
°C
Wind Press
QNH
hPa
Press
MSL
hPa
Rain
since 9 am
mm
Dir
 
Spd
km/h
Gust
km/h
Spd
kts
Gust
kts
21/11:30pm 22.3 18.2 2.4 27 9.5 ESE 13 15 7 8 1017.2 1015.4 0.0
21/11:00pm 23.5 19.4 2.4 25 10.2 ESE 13 17 7 9 1017.0 1015.2 0.0
21/10:30pm 21.7 18.5 2.9 29 9.0 ESE 9 13 5 7 1017.0 1015.2 0.0
21/10:00pm 22.6 19.4 3.2 28 9.5 ESE 9 11 5 6 1016.8 1015.0 0.0
21/09:30pm 23.0 19.8 3.0 27 9.7 ESE 9 11 5 6 1016.6 1014.8 0.0
21/09:00pm 22.7 19.2 3.3 28 9.5 ESE 11 13 6 7 1016.3 1014.5 0.0
21/08:30pm 23.3 20.1 3.3 27 9.8 ESE 9 11 5 6 1016.0 1014.3 0.0
21/08:00pm 23.9 20.5 2.1 24 10.5 ESE 9 11 5 6 1015.7 1014.0 0.0
21/07:30pm 25.4 21.9 1.5 21 11.5 ESE 9 11 5 6 1015.3 1013.6 0.0
21/07:00pm 27.6 24.1 1.2 18 12.9 E 9 11 5 6 1014.9 1013.2 0.0
21/06:30pm 30.1 25.4 0.6 15 14.5 E 15 19 8 10 1014.4 1012.6 0.0
21/06:00pm 31.8 26.7 1.0 14 15.4 ESE 17 26 9 14 1014.0 1012.2 0.0
21/05:30pm 32.7 27.0 0.7 13 16.0 ESE 20 30 11 16 1013.7 1011.9 0.0
21/05:00pm 33.2 27.8 1.1 13 16.2 ESE 19 26 10 14 1013.9 1012.1 0.0
21/04:30pm 33.1 27.7 1.0 13 16.1 ESE 19 30 10 16 1014.0 1012.2 0.0
21/04:00pm 33.6 28.0 1.4 13 16.4 SE 20 28 11 15 1014.3 1012.5 0.0
21/03:30pm 33.5 27.9 1.3 13 16.3 SE 20 30 11 16 1014.7 1013.0 0.0
21/03:00pm 32.8 26.8 0.8 13 16.0 SE 22 32 12 17 1014.9 1013.2 0.0
21/02:30pm 32.5 26.8 0.6 13 15.9 ESE 20 32 11 17 1015.2 1013.5 0.0
21/02:00pm 32.4 26.5 1.5 14 15.6 E 22 30 12 16 1015.7 1014.0 0.0
21/01:30pm 31.8 25.8 1.0 14 15.3 E 22 33 12 18 1016.4 1014.6 0.0
21/01:00pm 31.6 25.6 0.9 14 15.3 ESE 22 35 12 19 1017.0 1015.2 0.0
21/12:30pm 30.5 24.3 0.0 14 14.8 ESE 22 35 12 19 1017.5 1015.8 0.0
21/12:00pm 30.0 23.9 0.6 15 14.4 ESE 22 32 12 17 1017.9 1016.2 0.0
21/11:30am 29.1 22.3 0.7 16 13.8 ESE 26 35 14 19 1018.5 1016.8 0.0
21/11:00am 28.5 21.4 1.1 17 13.4 ESE 28 37 15 20 1019.1 1017.4 0.0
21/10:30am 27.6 20.1 1.2 18 12.8 ESE 30 39 16 21 1019.7 1017.9 0.0
21/10:00am 26.0 18.4 0.6 19 12.1 E 30 43 16 23 1019.9 1018.1 0.0
21/09:30am 25.0 17.0 0.5 20 11.5 E 32 43 17 23 1019.9 1018.1 0.0
21/09:09am 24.4 16.3 0.0 20 11.4 ESE 32 52 17 28 1019.8 1018.0 0.0
21/09:00am 24.9 17.0 1.1 21 11.3 ESE 32 44 17 24 1019.8 1018.0 0.0
21/08:37am 23.5 15.4 -0.1 21 10.9 E 32 50 17 27 1019.6 1017.8 0.0
21/08:30am 23.5 15.8 -0.1 21 10.9 E 30 43 16 23 1019.5 1017.7 0.0
21/08:00am 22.8 15.3 -1.3 20 10.8 ESE 28 39 15 21 1018.9 1017.2 0.0
21/07:30am 22.3 15.6 -1.1 21 10.5 ESE 24 33 13 18 1018.7 1017.0 0.0
21/07:00am 21.4 15.4 -1.2 22 10.0 ESE 20 28 11 15 1018.1 1016.4 0.0
21/06:30am 21.3 16.0 -0.6 23 9.8 E 17 22 9 12 1017.7 1016.0 0.0
21/06:00am 22.1 15.6 0.6 24 9.9 ESE 24 33 13 18 1016.5 1014.7 0.0
21/05:30am 21.3 15.3 3.5 31 8.6 SE 24 41 13 22 1015.8 1014.1 0.0
21/05:00am 17.9 14.6 2.6 36 7.1 NW 9 9 5 5 1014.1 1012.3 0.0
21/04:30am 18.0 15.0 2.3 35 7.3 NW 7 11 4 6 1014.0 1012.2 0.0
21/04:00am 19.2 15.9 2.6 33 7.8 NW 9 11 5 6 1013.8 1012.0 0.0
21/03:30am 19.8 16.5 2.2 31 8.2 NW 9 11 5 6 1013.8 1012.0 0.0
21/03:00am 19.4 16.1 2.3 32 8.0 WNW 9 11 5 6 1013.9 1012.1 0.0
21/02:30am 19.5 16.5 1.9 31 8.2 WNW 7 11 4 6 1013.9 1012.1 0.0
21/02:00am 19.2 16.3 2.6 33 7.8 WNW 7 9 4 5 1013.9 1012.1 0.0
21/01:30am 19.4 16.4 2.3 32 8.0 W 7 11 4 6 1014.0 1012.2 0.0
21/01:00am 19.8 16.3 1.3 29 8.5 NNE 9 11 5 6 1014.1 1012.3 0.0
21/12:30am 20.0 17.9 1.9 30 8.4 WNW 2 6 1 3 1014.3 1012.5 0.0
21/12:00am 21.1 17.6 1.4 27 9.2 NNE 9 11 5 6 1014.5 1012.7 0.0
 
Date/Time
CST
Temp
°C
App
Temp
°C
Dew
Point
Rel
Hum
%
Delta-T
°C
Wind Press
QNH
hPa
Press
MSL
hPa
Rain
since 9 am
mm
Dir
 
Spd
km/h
Gust
km/h
Spd
kts
Gust
kts
20/11:30pm 22.1 19.4 0.6 24 9.9 NE 4 7 2 4 1014.8 1013.1 0.0
20/11:00pm 23.8 21.4 -0.5 20 11.1 NNW 2 7 1 4 1014.8 1013.1 0.0
20/10:30pm 27.7 23.1 -1.3 15 13.5 NE 13 13 7 7 1014.7 1013.0 0.0
20/10:00pm 28.0 23.4 -1.0 15 13.6 NE 13 15 7 8 1014.7 1013.0 0.0
20/09:30pm 28.0 23.4 -1.0 15 13.6 NE 13 15 7 8 1014.5 1012.7 0.0
20/09:00pm 28.0 23.4 -1.0 15 13.6 NE 13 15 7 8 1014.4 1012.6 0.0
20/08:30pm 27.8 23.2 -1.2 15 13.5 ENE 13 15 7 8 1014.1 1012.3 0.0
20/08:00pm 28.5 24.0 -0.6 15 13.8 ENE 13 13 7 7 1013.8 1012.0 0.0
20/07:30pm 29.3 24.8 0.0 15 14.1 ENE 13 15 7 8 1013.6 1011.8 0.0
20/07:00pm 29.8 25.7 -0.5 14 14.5 ENE 11 11 6 6 1013.3 1011.5 0.0
20/06:30pm 32.4 28.5 -1.8 11 16.4 ESE 9 13 5 7 1013.0 1011.2 0.0
20/06:00pm 34.8 30.5 -1.3 10 17.7 SE 11 13 6 7 1012.8 1011.0 0.0
20/05:30pm 35.8 31.3 -0.5 10 18.1 SE 13 20 7 11 1012.4 1010.7 0.0
20/05:00pm 36.4 31.7 -1.5 9 18.7 ESE 13 19 7 10 1012.2 1010.5 0.0
20/04:30pm 37.2 33.8 -0.9 9 19.1 SW 7 11 4 6 1012.0 1010.3 0.0
20/04:00pm 36.4 32.9 -1.5 9 18.7 N 7 17 4 9 1012.0 1010.3 0.0
20/03:30pm 37.2 32.6 -0.9 9 19.1 ENE 13 22 7 12 1012.2 1010.5 0.0
20/03:00pm 36.6 32.7 -1.4 9 18.8 WNW 9 17 5 9 1012.6 1010.9 0.0
20/02:30pm 37.0 32.8 -1.1 9 19.0 NW 11 19 6 10 1013.1 1011.3 0.0
20/02:00pm 37.1 32.9 -1.0 9 19.0 NNE 11 24 6 13 1013.5 1011.7 0.0
20/01:30pm 36.9 31.0 -1.1 9 18.9 N 20 28 11 15 1014.0 1012.2 0.0
20/01:00pm 36.5 30.0 0.0 10 18.4 N 24 35 13 19 1014.3 1012.5 0.0
20/12:30pm 36.1 29.9 -0.3 10 18.3 N 22 39 12 21 1015.0 1013.3 0.0
20/12:00pm 35.6 29.1 0.6 11 17.8 N 24 35 13 19 1015.5 1013.8 0.0
20/11:30am 34.8 29.2 1.2 12 17.1 N 20 33 11 18 1015.9 1014.2 0.0
20/11:00am 33.6 26.7 0.3 12 16.6 N 26 35 14 19 1016.3 1014.5 0.0
20/10:30am 32.4 25.6 0.5 13 15.8 NNW 26 35 14 19 1016.5 1014.7 0.0
20/10:00am 31.0 25.8 0.4 14 15.0 N 17 22 9 12 1016.7 1014.9 0.0
20/09:30am 29.1 23.5 -0.1 15 14.0 N 19 28 10 15 1016.8 1015.0 0.0
20/09:00am 28.7 23.1 1.3 17 13.4 N 20 30 11 16 1016.6 1014.8 0.0
20/08:30am 26.5 20.9 1.0 19 12.3 N 20 28 11 15 1016.3 1014.5 0.0
20/08:00am 25.0 20.3 1.2 21 11.4 NNW 15 20 8 11 1015.9 1014.2 0.0
20/07:30am 24.0 19.7 1.0 22 10.9 NNW 13 20 7 11 1015.6 1013.9 0.0
20/07:00am 20.6 17.0 2.9 31 8.5 N 11 13 6 7 1015.2 1013.5 0.0
20/06:30am 17.1 14.3 2.3 37 6.8 NW 6 7 3 4 1015.0 1013.3 0.0
20/06:00am 17.8 14.9 1.3 33 7.5 NW 6 7 3 4 1014.7 1013.0 0.0
20/05:56am 17.7 14.7 0.8 32 7.6 NW 6 9 3 5 1014.6 1012.9 0.0
20/05:30am 22.7 18.3 0.5 23 10.3 N 13 15 7 8 1014.3 1012.5 0.0
20/05:00am 21.2 16.9 1.0 26 9.3 N 13 17 7 9 1014.3 1012.5 0.0
20/04:30am 19.0 14.9 2.0 32 7.9 NNW 13 13 7 7 1013.9 1012.1 0.0
20/04:00am 16.9 14.0 1.4 35 7.0 WNW 6 7 3 4 1014.2 1012.4 0.0
20/03:30am 17.8 14.8 1.7 34 7.3 NW 7 9 4 5 1014.2 1012.4 0.0
20/03:00am 19.0 16.0 1.1 30 8.2 NNE 6 9 3 5 1014.3 1012.5 0.0
20/02:30am 23.6 19.5 0.0 21 10.9 NE 11 15 6 8 1014.3 1012.5 0.0
20/02:00am 22.9 18.7 -0.6 21 10.7 NE 11 13 6 7 1014.5 1012.7 0.0
20/01:30am 22.9 18.8 0.1 22 10.5 NE 11 13 6 7 1014.7 1013.0 0.0
20/01:00am 18.8 16.0 -0.1 28 8.4 N 4 9 2 5 1015.0 1013.3 0.0
20/12:30am 20.6 17.3 0.4 26 9.2 WNW 7 9 4 5 1015.3 1013.6 0.0
20/12:00am 24.3 20.2 -0.1 20 11.3 NE 11 13 6 7 1015.2 1013.5 0.0
 
Date/Time
CST
Temp
°C
App
Temp
°C
Dew
Point
Rel
Hum
%
Delta-T
°C
Wind Press
QNH
hPa
Press
MSL
hPa
Rain
since 9 am
mm
Dir
 
Spd
km/h
Gust
km/h
Spd
kts
Gust
kts
19/11:30pm 25.3 21.1 -0.7 18 12.0 NNE 11 13 6 7 1015.3 1013.6 0.0
19/11:00pm 26.2 21.6 -0.8 17 12.6 NE 13 13 7 7 1015.4 1013.7 0.0
19/10:30pm 26.9 22.3 -1.0 16 13.0 NE 13 15 7 8 1015.5 1013.8 0.0
19/10:00pm 26.8 22.2 -1.1 16 13.0 ENE 13 15 7 8 1015.5 1013.8 0.0
19/09:30pm 26.6 22.1 -0.4 17 12.7 NE 13 15 7 8 1015.5 1013.8 0.0
19/09:00pm 26.5 22.1 0.3 18 12.4 ENE 13 15 7 8 1015.4 1013.7 0.0
19/08:30pm 26.8 22.3 -0.3 17 12.8 ENE 13 13 7 7 1015.2 1013.5 0.0
19/08:00pm 27.6 23.5 -0.5 16 13.3 NE 11 13 6 7 1015.0 1013.3 0.0
19/07:30pm 28.3 24.1 -0.8 15 13.7 ENE 11 13 6 7 1014.6 1012.9 0.0
19/07:00pm 29.6 25.4 -0.7 14 14.5 ENE 11 13 6 7 1014.2 1012.4 0.0
19/06:30pm 32.2 28.0 -0.8 12 16.0 E 11 15 6 8 1013.8 1012.0 0.0
19/06:00pm 34.4 30.9 -1.6 10 17.5 ESE 7 13 4 7 1013.4 1011.6 0.0
19/05:30pm 35.3 30.7 -0.9 10 17.9 E 13 19 7 10 1013.1 1011.3 0.0
19/05:00pm 35.8 31.7 -0.5 10 18.1 ESE 11 22 6 12 1012.9 1011.1 0.0
19/04:30pm 36.6 32.3 -1.4 9 18.8 E 11 19 6 10 1012.8 1011.0 0.0
19/04:00pm 36.2 31.5 -1.7 9 18.6 NNE 13 22 7 12 1012.9 1011.1 0.0
19/03:30pm 36.3 32.0 -1.6 9 18.7 E 11 20 6 11 1013.1 1011.3 0.0
19/03:00pm 37.2 32.6 -0.9 9 19.1 ENE 13 19 7 10 1013.3 1011.5 0.0
19/02:30pm 36.1 31.6 -0.3 10 18.3 NNE 13 22 7 12 1013.9 1012.1 0.0
19/02:00pm 36.8 31.0 0.2 10 18.6 N 20 32 11 17 1014.4 1012.6 0.0
19/01:30pm 35.2 29.8 -1.0 10 17.9 N 17 30 9 16 1014.9 1013.2 0.0
19/01:00pm 35.7 30.4 -0.6 10 18.1 NNW 17 30 9 16 1015.2 1013.5 0.0
19/12:30pm 35.4 29.7 0.5 11 17.6 N 20 33 11 18 1015.8 1014.1 0.0
19/12:00pm 34.5 28.1 1.0 12 17.0 N 24 39 13 21 1016.5 1014.7 0.0
19/11:30am 34.2 27.6 1.9 13 16.6 N 26 39 14 21 1016.9 1015.1 0.0
19/11:00am 32.9 25.7 0.9 13 16.0 N 28 39 15 21 1017.3 1015.5 0.0
19/10:30am 31.7 24.2 1.0 14 15.3 N 30 43 16 23 1017.6 1015.9 0.0
19/10:00am 30.9 24.2 1.3 15 14.8 N 26 37 14 20 1017.8 1016.1 0.0
19/09:30am 29.6 23.1 2.8 18 13.6 N 26 37 14 20 1017.9 1016.2 0.0
19/09:00am 28.0 21.6 3.0 20 12.6 N 26 35 14 19 1017.6 1015.9 0.0
19/08:30am 26.5 20.6 1.7 20 12.1 N 22 30 12 16 1017.4 1015.7 0.0
19/08:00am 25.1 19.5 1.3 21 11.4 N 20 30 11 16 1017.0 1015.2 0.0

Other Formats:

Comma delimited format used in spreadsheet applications
http://www.bom.gov.au/fwo/IDD60801/IDD60801.94231.axf

JavaScript Object Notation format (JSON) in row-major order
http://www.bom.gov.au/fwo/IDD60801/IDD60801.94231.json